sensor_id;sensor_type;location;lat;lon;timestamp;pressure;altitude;pressure_sealevel;temperature;humidity
69058;BME280;56128;37.534;-122.308;2023-04-23T00:00:32;101215.81;;;18.86;90.60
69058;BME280;56128;37.534;-122.308;2023-04-23T00:03:05;101207.94;;;18.92;87.39
69058;BME280;56128;37.534;-122.308;2023-04-23T00:05:35;101212.84;;;18.97;89.11
69058;BME280;56128;37.534;-122.308;2023-04-23T00:08:05;101206.59;;;18.96;89.15
69058;BME280;56128;37.534;-122.308;2023-04-23T00:10:31;101214.38;;;19.00;86.20
69058;BME280;56128;37.534;-122.308;2023-04-23T00:12:58;101204.88;;;18.95;85.52
69058;BME280;56128;37.534;-122.308;2023-04-23T00:15:24;101214.47;;;18.90;84.05
69058;BME280;56128;37.534;-122.308;2023-04-23T00:17:51;101204.53;;;18.90;85.32
69058;BME280;56128;37.534;-122.308;2023-04-23T00:20:17;101214.03;;;18.94;84.83
69058;BME280;56128;37.534;-122.308;2023-04-23T00:22:43;101214.63;;;18.88;81.69
69058;BME280;56128;37.534;-122.308;2023-04-23T00:25:10;101210.09;;;18.89;82.38
69058;BME280;56128;37.534;-122.308;2023-04-23T00:27:36;101210.72;;;18.82;82.20
69058;BME280;56128;37.534;-122.308;2023-04-23T00:30:03;101204.59;;;18.80;81.21
69058;BME280;56128;37.534;-122.308;2023-04-23T00:32:30;101207.66;;;18.77;80.37
69058;BME280;56128;37.534;-122.308;2023-04-23T00:34:56;101197.47;;;18.79;80.00
69058;BME280;56128;37.534;-122.308;2023-04-23T00:37:22;101209.31;;;18.78;80.86
69058;BME280;56128;37.534;-122.308;2023-04-23T00:39:49;101199.50;;;18.77;80.87
69058;BME280;56128;37.534;-122.308;2023-04-23T00:42:15;101185.06;;;18.69;79.26
69058;BME280;56128;37.534;-122.308;2023-04-23T00:44:42;101201.06;;;18.80;79.86
69058;BME280;56128;37.534;-122.308;2023-04-23T00:47:09;101208.28;;;18.71;80.51
69058;BME280;56128;37.534;-122.308;2023-04-23T00:49:37;101198.25;;;18.63;80.34
69058;BME280;56128;37.534;-122.308;2023-04-23T00:52:04;101199.72;;;18.58;80.67
69058;BME280;56128;37.534;-122.308;2023-04-23T00:54:30;101203.91;;;18.52;79.81
69058;BME280;56128;37.534;-122.308;2023-04-23T00:56:57;101201.97;;;18.44;80.67
69058;BME280;56128;37.534;-122.308;2023-04-23T00:59:24;101197.31;;;18.28;81.71
69058;BME280;56128;37.534;-122.308;2023-04-23T01:01:52;101204.53;;;18.20;81.91
69058;BME280;56128;37.534;-122.308;2023-04-23T01:04:21;101197.56;;;18.17;82.81
69058;BME280;56128;37.534;-122.308;2023-04-23T01:06:49;101196.16;;;18.13;83.00
69058;BME280;56128;37.534;-122.308;2023-04-23T01:09:36;101188.59;;;17.98;84.10
69058;BME280;56128;37.534;-122.308;2023-04-23T01:12:05;101184.78;;;17.91;84.13
69058;BME280;56128;37.534;-122.308;2023-04-23T01:14:32;101186.94;;;17.88;84.35
69058;BME280;56128;37.534;-122.308;2023-04-23T01:16:58;101179.75;;;17.78;84.65
69058;BME280;56128;37.534;-122.308;2023-04-23T01:19:26;101184.91;;;17.72;86.09
69058;BME280;56128;37.534;-122.308;2023-04-23T01:21:52;101176.88;;;17.62;84.75
69058;BME280;56128;37.534;-122.308;2023-04-23T01:24:21;101183.28;;;17.61;85.64
69058;BME280;56128;37.534;-122.308;2023-04-23T01:26:47;101179.50;;;17.53;84.76
69058;BME280;56128;37.534;-122.308;2023-04-23T01:29:14;101175.41;;;17.49;85.91
69058;BME280;56128;37.534;-122.308;2023-04-23T01:31:41;101173.97;;;17.45;85.08
69058;BME280;56128;37.534;-122.308;2023-04-23T01:34:08;101178.56;;;17.45;85.69
69058;BME280;56128;37.534;-122.308;2023-04-23T01:36:34;101168.09;;;17.32;83.07
69058;BME280;56128;37.534;-122.308;2023-04-23T01:39:02;101173.63;;;17.30;84.78
69058;BME280;56128;37.534;-122.308;2023-04-23T01:41:30;101177.66;;;17.26;84.60
69058;BME280;56128;37.534;-122.308;2023-04-23T01:43:56;101180.13;;;17.19;84.33
69058;BME280;56128;37.534;-122.308;2023-04-23T01:46:22;101175.75;;;17.09;84.63
69058;BME280;56128;37.534;-122.308;2023-04-23T01:48:48;101181.59;;;17.04;83.87
69058;BME280;56128;37.534;-122.308;2023-04-23T01:51:15;101176.34;;;17.02;85.45
69058;BME280;56128;37.534;-122.308;2023-04-23T01:53:41;101169.16;;;16.93;85.95
69058;BME280;56128;37.534;-122.308;2023-04-23T01:56:08;101170.00;;;16.94;87.67
69058;BME280;56128;37.534;-122.308;2023-04-23T01:58:35;101173.41;;;16.86;87.32
69058;BME280;56128;37.534;-122.308;2023-04-23T02:01:01;101166.03;;;16.78;87.66
69058;BME280;56128;37.534;-122.308;2023-04-23T02:03:31;101163.09;;;16.71;87.32
69058;BME280;56128;37.534;-122.308;2023-04-23T02:05:59;101162.66;;;16.66;89.35
69058;BME280;56128;37.534;-122.308;2023-04-23T02:08:26;101172.22;;;16.61;88.10
69058;BME280;56128;37.534;-122.308;2023-04-23T02:10:53;101160.13;;;16.55;89.15
69058;BME280;56128;37.534;-122.308;2023-04-23T02:13:19;101168.81;;;16.49;89.77
69058;BME280;56128;37.534;-122.308;2023-04-23T02:15:45;101180.25;;;16.33;91.02
69058;BME280;56128;37.534;-122.308;2023-04-23T02:18:11;101177.13;;;16.28;91.44
69058;BME280;56128;37.534;-122.308;2023-04-23T02:20:38;101181.56;;;16.09;91.35
69058;BME280;56128;37.534;-122.308;2023-04-23T02:23:08;101175.84;;;16.02;93.02
69058;BME280;56128;37.534;-122.308;2023-04-23T02:25:35;101168.91;;;15.90;93.05
69058;BME280;56128;37.534;-122.308;2023-04-23T02:28:04;101177.81;;;15.81;93.72
69058;BME280;56128;37.534;-122.308;2023-04-23T02:30:34;101163.19;;;15.73;93.83
69058;BME280;56128;37.534;-122.308;2023-04-23T02:33:01;101169.56;;;15.63;93.92
69058;BME280;56128;37.534;-122.308;2023-04-23T02:35:29;101166.16;;;15.61;94.25
69058;BME280;56128;37.534;-122.308;2023-04-23T02:37:56;101170.28;;;15.55;95.44
69058;BME280;56128;37.534;-122.308;2023-04-23T02:40:22;101177.63;;;15.43;95.21
69058;BME280;56128;37.534;-122.308;2023-04-23T02:42:48;101180.19;;;15.35;95.07
69058;BME280;56128;37.534;-122.308;2023-04-23T02:45:15;101182.84;;;15.25;95.97
69058;BME280;56128;37.534;-122.308;2023-04-23T02:47:41;101176.88;;;15.21;95.62
69058;BME280;56128;37.534;-122.308;2023-04-23T02:50:08;101180.25;;;15.14;96.08
69058;BME280;56128;37.534;-122.308;2023-04-23T02:52:34;101180.81;;;15.07;96.95
69058;BME280;56128;37.534;-122.308;2023-04-23T02:55:01;101164.59;;;14.98;97.25
69058;BME280;56128;37.534;-122.308;2023-04-23T02:57:30;101173.34;;;14.90;98.08
69058;BME280;56128;37.534;-122.308;2023-04-23T02:59:56;101177.56;;;14.83;98.95
69058;BME280;56128;37.534;-122.308;2023-04-23T03:02:22;101177.13;;;14.77;100.00
69058;BME280;56128;37.534;-122.308;2023-04-23T03:04:48;101167.16;;;14.68;100.00
69058;BME280;56128;37.534;-122.308;2023-04-23T03:07:16;101168.19;;;14.56;100.00
69058;BME280;56128;37.534;-122.308;2023-04-23T03:09:42;101167.16;;;14.47;100.00
69058;BME280;56128;37.534;-122.308;2023-04-23T03:12:09;101170.97;;;14.44;100.00
69058;BME280;56128;37.534;-122.308;2023-04-23T03:14:35;101180.81;;;14.34;100.00
69058;BME280;56128;37.534;-122.308;2023-04-23T03:17:01;101182.34;;;14.27;100.00
69058;BME280;56128;37.534;-122.308;2023-04-23T03:19:28;101184.81;;;14.19;100.00
69058;BME280;56128;37.534;-122.308;2023-04-23T03:21:54;101194.13;;;14.15;100.00
69058;BME280;56128;37.534;-122.308;2023-04-23T03:24:21;101179.28;;;13.99;100.00
69058;BME280;56128;37.534;-122.308;2023-04-23T03:26:47;101180.06;;;13.90;100.00
69058;BME280;56128;37.534;-122.308;2023-04-23T03:29:13;101181.44;;;13.84;100.00
69058;BME280;56128;37.534;-122.308;2023-04-23T03:31:39;101179.59;;;13.85;100.00
69058;BME280;56128;37.534;-122.308;2023-04-23T03:34:06;101192.56;;;13.79;100.00
69058;BME280;56128;37.534;-122.308;2023-04-23T03:36:32;101199.44;;;13.72;100.00
69058;BME280;56128;37.534;-122.308;2023-04-23T03:38:58;101197.84;;;13.70;100.00
69058;BME280;56128;37.534;-122.308;2023-04-23T03:41:24;101192.13;;;13.63;100.00
69058;BME280;56128;37.534;-122.308;2023-04-23T03:43:51;101196.66;;;13.62;100.00
69058;BME280;56128;37.534;-122.308;2023-04-23T03:46:17;101184.81;;;13.54;100.00
69058;BME280;56128;37.534;-122.308;2023-04-23T03:48:43;101198.38;;;13.52;100.00
69058;BME280;56128;37.534;-122.308;2023-04-23T03:51:13;101197.19;;;13.45;100.00
69058;BME280;56128;37.534;-122.308;2023-04-23T03:53:39;101210.00;;;13.41;100.00
69058;BME280;56128;37.534;-122.308;2023-04-23T03:56:05;101197.06;;;13.35;100.00
69058;BME280;56128;37.534;-122.308;2023-04-23T03:58:32;101197.81;;;13.37;100.00
69058;BME280;56128;37.534;-122.308;2023-04-23T04:00:58;101206.94;;;13.35;100.00
69058;BME280;56128;37.534;-122.308;2023-04-23T04:03:24;101208.78;;;13.34;100.00
69058;BME280;56128;37.534;-122.308;2023-04-23T04:05:50;101203.78;;;13.29;100.00
69058;BME280;56128;37.534;-122.308;2023-04-23T04:08:17;101212.47;;;13.22;100.00
69058;BME280;56128;37.534;-122.308;2023-04-23T04:10:43;101214.41;;;13.20;100.00
69058;BME280;56128;37.534;-122.308;2023-04-23T04:13:09;101218.94;;;13.19;100.00
69058;BME280;56128;37.534;-122.308;2023-04-23T04:15:35;101219.44;;;13.13;100.00
69058;BME280;56128;37.534;-122.308;2023-04-23T04:18:02;101219.03;;;13.06;100.00
69058;BME280;56128;37.534;-122.308;2023-04-23T04:20:28;101234.44;;;13.04;100.00
69058;BME280;56128;37.534;-122.308;2023-04-23T04:22:54;101233.84;;;13.01;100.00
69058;BME280;56128;37.534;-122.308;2023-04-23T04:25:21;101230.53;;;12.97;100.00
69058;BME280;56128;37.534;-122.308;2023-04-23T04:27:49;101221.63;;;12.85;100.00
69058;BME280;56128;37.534;-122.308;2023-04-23T04:30:15;101242.63;;;12.91;100.00
69058;BME280;56128;37.534;-122.308;2023-04-23T04:32:42;101238.34;;;12.89;100.00
69058;BME280;56128;37.534;-122.308;2023-04-23T04:35:10;101247.72;;;12.83;100.00
69058;BME280;56128;37.534;-122.308;2023-04-23T04:37:39;101258.09;;;12.76;100.00
69058;BME280;56128;37.534;-122.308;2023-04-23T04:40:07;101250.53;;;12.70;100.00
69058;BME280;56128;37.534;-122.308;2023-04-23T04:42:33;101250.63;;;12.69;100.00
69058;BME280;56128;37.534;-122.308;2023-04-23T04:45:00;101246.59;;;12.63;100.00
69058;BME280;56128;37.534;-122.308;2023-04-23T04:47:27;101245.38;;;12.67;100.00
69058;BME280;56128;37.534;-122.308;2023-04-23T04:49:53;101242.44;;;12.59;100.00
69058;BME280;56128;37.534;-122.308;2023-04-23T04:52:22;101246.31;;;12.55;100.00
69058;BME280;56128;37.534;-122.308;2023-04-23T04:54:49;101238.03;;;12.46;100.00
69058;BME280;56128;37.534;-122.308;2023-04-23T04:57:15;101246.28;;;12.43;100.00
69058;BME280;56128;37.534;-122.308;2023-04-23T04:59:44;101231.41;;;12.39;100.00
69058;BME280;56128;37.534;-122.308;2023-04-23T05:02:11;101232.25;;;12.40;100.00
69058;BME280;56128;37.534;-122.308;2023-04-23T05:04:37;101227.13;;;12.37;100.00
69058;BME280;56128;37.534;-122.308;2023-04-23T05:07:04;101224.56;;;12.35;100.00
69058;BME280;56128;37.534;-122.308;2023-04-23T05:09:30;101227.59;;;12.30;100.00
69058;BME280;56128;37.534;-122.308;2023-04-23T05:11:56;101224.41;;;12.25;100.00
69058;BME280;56128;37.534;-122.308;2023-04-23T05:14:22;101230.00;;;12.22;100.00
69058;BME280;56128;37.534;-122.308;2023-04-23T05:16:51;101226.72;;;12.18;100.00
69058;BME280;56128;37.534;-122.308;2023-04-23T05:19:17;101223.63;;;12.12;100.00
69058;BME280;56128;37.534;-122.308;2023-04-23T05:21:43;101225.69;;;12.08;100.00
69058;BME280;56128;37.534;-122.308;2023-04-23T05:24:29;101208.22;;;12.02;100.00
69058;BME280;56128;37.534;-122.308;2023-04-23T05:26:56;101210.84;;;11.91;100.00
69058;BME280;56128;37.534;-122.308;2023-04-23T05:29:22;101215.13;;;11.94;100.00
69058;BME280;56128;37.534;-122.308;2023-04-23T05:31:48;101217.88;;;12.05;100.00
69058;BME280;56128;37.534;-122.308;2023-04-23T05:34:15;101207.34;;;12.02;100.00
69058;BME280;56128;37.534;-122.308;2023-04-23T05:36:41;101200.06;;;12.04;100.00
69058;BME280;56128;37.534;-122.308;2023-04-23T05:39:07;101203.59;;;12.05;100.00
69058;BME280;56128;37.534;-122.308;2023-04-23T05:41:33;101201.78;;;12.05;100.00
69058;BME280;56128;37.534;-122.308;2023-04-23T05:44:00;101194.44;;;11.96;100.00
69058;BME280;56128;37.534;-122.308;2023-04-23T05:46:29;101202.50;;;11.96;100.00
69058;BME280;56128;37.534;-122.308;2023-04-23T05:48:55;101202.91;;;11.90;100.00
69058;BME280;56128;37.534;-122.308;2023-04-23T05:51:21;101198.97;;;11.82;100.00
69058;BME280;56128;37.534;-122.308;2023-04-23T05:53:48;101199.31;;;11.78;100.00
69058;BME280;56128;37.534;-122.308;2023-04-23T05:56:14;101193.56;;;11.71;100.00
69058;BME280;56128;37.534;-122.308;2023-04-23T05:58:41;101190.38;;;11.66;100.00
69058;BME280;56128;37.534;-122.308;2023-04-23T06:01:07;101181.91;;;11.59;100.00
69058;BME280;56128;37.534;-122.308;2023-04-23T06:03:34;101185.03;;;11.53;100.00
69058;BME280;56128;37.534;-122.308;2023-04-23T06:06:02;101186.25;;;11.49;100.00
69058;BME280;56128;37.534;-122.308;2023-04-23T06:08:28;101188.53;;;11.42;100.00
69058;BME280;56128;37.534;-122.308;2023-04-23T06:10:54;101195.59;;;11.43;100.00
69058;BME280;56128;37.534;-122.308;2023-04-23T06:13:20;101181.56;;;11.40;100.00
69058;BME280;56128;37.534;-122.308;2023-04-23T06:15:47;101189.81;;;11.36;100.00
69058;BME280;56128;37.534;-122.308;2023-04-23T06:18:13;101188.88;;;11.25;100.00
69058;BME280;56128;37.534;-122.308;2023-04-23T06:20:39;101199.81;;;11.34;100.00
69058;BME280;56128;37.534;-122.308;2023-04-23T06:23:05;101194.00;;;11.28;100.00
69058;BME280;56128;37.534;-122.308;2023-04-23T06:25:32;101198.09;;;11.20;100.00
69058;BME280;56128;37.534;-122.308;2023-04-23T06:27:58;101185.84;;;11.29;100.00
69058;BME280;56128;37.534;-122.308;2023-04-23T06:30:24;101200.78;;;11.20;100.00
69058;BME280;56128;37.534;-122.308;2023-04-23T06:32:50;101199.28;;;11.16;100.00
69058;BME280;56128;37.534;-122.308;2023-04-23T06:35:17;101201.69;;;11.08;100.00
69058;BME280;56128;37.534;-122.308;2023-04-23T06:37:43;101211.88;;;11.03;100.00
69058;BME280;56128;37.534;-122.308;2023-04-23T06:40:09;101223.97;;;10.96;100.00
69058;BME280;56128;37.534;-122.308;2023-04-23T06:42:36;101223.97;;;10.96;100.00
69058;BME280;56128;37.534;-122.308;2023-04-23T06:45:02;101223.63;;;10.87;100.00
69058;BME280;56128;37.534;-122.308;2023-04-23T06:47:30;101223.44;;;10.91;100.00
69058;BME280;56128;37.534;-122.308;2023-04-23T06:49:57;101229.53;;;10.93;100.00
69058;BME280;56128;37.534;-122.308;2023-04-23T06:52:24;101222.66;;;11.01;100.00
69058;BME280;56128;37.534;-122.308;2023-04-23T06:54:51;101218.59;;;11.09;100.00
69058;BME280;56128;37.534;-122.308;2023-04-23T06:57:17;101216.22;;;11.04;100.00
69058;BME280;56128;37.534;-122.308;2023-04-23T06:59:43;101224.34;;;11.15;100.00
69058;BME280;56128;37.534;-122.308;2023-04-23T07:02:10;101222.31;;;11.19;100.00
69058;BME280;56128;37.534;-122.308;2023-04-23T07:04:36;101233.34;;;11.27;100.00
69058;BME280;56128;37.534;-122.308;2023-04-23T07:07:02;101234.19;;;11.28;100.00
69058;BME280;56128;37.534;-122.308;2023-04-23T07:09:29;101229.59;;;11.30;100.00
69058;BME280;56128;37.534;-122.308;2023-04-23T07:11:55;101226.41;;;11.25;100.00
69058;BME280;56128;37.534;-122.308;2023-04-23T07:14:21;101218.56;;;11.21;100.00
69058;BME280;56128;37.534;-122.308;2023-04-23T07:16:48;101221.34;;;11.20;100.00
69058;BME280;56128;37.534;-122.308;2023-04-23T07:19:14;101213.66;;;11.15;100.00
69058;BME280;56128;37.534;-122.308;2023-04-23T07:22:00;101209.38;;;11.13;100.00
69058;BME280;56128;37.534;-122.308;2023-04-23T07:24:26;101202.41;;;11.10;100.00
69058;BME280;56128;37.534;-122.308;2023-04-23T07:26:52;101203.47;;;11.08;100.00
69058;BME280;56128;37.534;-122.308;2023-04-23T07:29:19;101205.44;;;11.06;100.00
69058;BME280;56128;37.534;-122.308;2023-04-23T07:31:45;101205.44;;;11.06;100.00
69058;BME280;56128;37.534;-122.308;2023-04-23T07:34:13;101196.75;;;11.02;100.00
69058;BME280;56128;37.534;-122.308;2023-04-23T07:36:39;101196.13;;;10.98;100.00
69058;BME280;56128;37.534;-122.308;2023-04-23T07:39:05;101175.97;;;10.93;100.00
69058;BME280;56128;37.534;-122.308;2023-04-23T07:41:32;101169.91;;;10.91;100.00
69058;BME280;56128;37.534;-122.308;2023-04-23T07:43:58;101181.44;;;10.91;100.00
69058;BME280;56128;37.534;-122.308;2023-04-23T07:46:27;101183.06;;;10.94;100.00
69058;BME280;56128;37.534;-122.308;2023-04-23T07:48:53;101187.03;;;10.88;100.00
69058;BME280;56128;37.534;-122.308;2023-04-23T07:51:20;101184.69;;;10.83;100.00
69058;BME280;56128;37.534;-122.308;2023-04-23T07:53:47;101177.59;;;10.82;100.00
69058;BME280;56128;37.534;-122.308;2023-04-23T07:56:16;101183.06;;;10.81;100.00
69058;BME280;56128;37.534;-122.308;2023-04-23T07:58:42;101189.28;;;10.81;100.00
69058;BME280;56128;37.534;-122.308;2023-04-23T08:01:08;101187.47;;;10.82;100.00
69058;BME280;56128;37.534;-122.308;2023-04-23T08:03:35;101188.31;;;10.82;100.00
69058;BME280;56128;37.534;-122.308;2023-04-23T08:06:01;101196.03;;;10.87;100.00
69058;BME280;56128;37.534;-122.308;2023-04-23T08:08:29;101191.75;;;10.84;100.00
69058;BME280;56128;37.534;-122.308;2023-04-23T08:10:55;101193.53;;;10.84;100.00
69058;BME280;56128;37.534;-122.308;2023-04-23T08:13:21;101189.28;;;10.81;100.00
69058;BME280;56128;37.534;-122.308;2023-04-23T08:15:48;101190.56;;;10.88;100.00
69058;BME280;56128;37.534;-122.308;2023-04-23T08:18:14;101189.78;;;10.86;100.00
69058;BME280;56128;37.534;-122.308;2023-04-23T08:20:40;101189.28;;;10.94;100.00
69058;BME280;56128;37.534;-122.308;2023-04-23T08:23:07;101193.88;;;10.92;100.00
69058;BME280;56128;37.534;-122.308;2023-04-23T08:25:33;101196.75;;;11.02;100.00
69058;BME280;56128;37.534;-122.308;2023-04-23T08:27:59;101203.25;;;11.24;100.00
69058;BME280;56128;37.534;-122.308;2023-04-23T08:30:25;101196.56;;;11.42;100.00
69058;BME280;56128;37.534;-122.308;2023-04-23T08:32:52;101202.19;;;11.50;100.00
69058;BME280;56128;37.534;-122.308;2023-04-23T08:35:18;101203.41;;;11.46;100.00
69058;BME280;56128;37.534;-122.308;2023-04-23T08:37:48;101189.31;;;11.56;100.00
69058;BME280;56128;37.534;-122.308;2023-04-23T08:40:14;101201.53;;;11.60;100.00
69058;BME280;56128;37.534;-122.308;2023-04-23T08:42:48;101196.38;;;11.57;100.00
69058;BME280;56128;37.534;-122.308;2023-04-23T08:45:15;101192.97;;;11.55;100.00
69058;BME280;56128;37.534;-122.308;2023-04-23T08:47:42;101191.16;;;11.55;100.00
69058;BME280;56128;37.534;-122.308;2023-04-23T08:50:13;101194.06;;;11.52;100.00
69058;BME280;56128;37.534;-122.308;2023-04-23T08:52:46;101184.19;;;11.52;100.00
69058;BME280;56128;37.534;-122.308;2023-04-23T08:55:13;101187.84;;;11.51;100.00
69058;BME280;56128;37.534;-122.308;2023-04-23T08:57:41;101183.56;;;11.49;100.00
69058;BME280;56128;37.534;-122.308;2023-04-23T09:00:09;101185.59;;;11.45;100.00
69058;BME280;56128;37.534;-122.308;2023-04-23T09:02:41;101188.59;;;11.53;100.00
69058;BME280;56128;37.534;-122.308;2023-04-23T09:05:08;101171.19;;;11.59;100.00
69058;BME280;56128;37.534;-122.308;2023-04-23T09:07:35;101176.22;;;11.64;100.00
69058;BME280;56128;37.534;-122.308;2023-04-23T09:10:03;101173.06;;;11.70;100.00
69058;BME280;56128;37.534;-122.308;2023-04-23T09:12:29;101172.75;;;11.75;100.00
69058;BME280;56128;37.534;-122.308;2023-04-23T09:14:56;101172.63;;;11.76;100.00
69058;BME280;56128;37.534;-122.308;2023-04-23T09:17:22;101144.94;;;11.76;100.00
69058;BME280;56128;37.534;-122.308;2023-04-23T09:19:53;101151.69;;;11.81;100.00
69058;BME280;56128;37.534;-122.308;2023-04-23T09:25:09;101154.03;;;11.86;100.00
69058;BME280;56128;37.534;-122.308;2023-04-23T09:27:36;101148.66;;;11.86;100.00
69058;BME280;56128;37.534;-122.308;2023-04-23T09:30:04;101145.34;;;11.82;100.00
69058;BME280;56128;37.534;-122.308;2023-04-23T09:32:38;101140.19;;;11.79;100.00
69058;BME280;56128;37.534;-122.308;2023-04-23T09:35:05;101150.84;;;11.81;100.00
69058;BME280;56128;37.534;-122.308;2023-04-23T09:37:32;101147.63;;;11.76;100.00
69058;BME280;56128;37.534;-122.308;2023-04-23T09:40:00;101138.69;;;11.64;100.00
69058;BME280;56128;37.534;-122.308;2023-04-23T09:42:28;101145.47;;;11.57;100.00
69058;BME280;56128;37.534;-122.308;2023-04-23T09:44:56;101141.31;;;11.52;100.00
69058;BME280;56128;37.534;-122.308;2023-04-23T09:47:23;101131.78;;;11.48;100.00
69058;BME280;56128;37.534;-122.308;2023-04-23T09:49:49;101128.25;;;11.48;100.00
69058;BME280;56128;37.534;-122.308;2023-04-23T09:52:17;101125.22;;;11.52;100.00
69058;BME280;56128;37.534;-122.308;2023-04-23T09:54:44;101120.13;;;11.49;100.00
69058;BME280;56128;37.534;-122.308;2023-04-23T09:57:11;101130.19;;;11.46;100.00
69058;BME280;56128;37.534;-122.308;2023-04-23T09:59:37;101132.25;;;11.42;100.00
69058;BME280;56128;37.534;-122.308;2023-04-23T10:02:05;101130.53;;;11.41;100.00
69058;BME280;56128;37.534;-122.308;2023-04-23T10:04:33;101129.06;;;11.37;100.00
69058;BME280;56128;37.534;-122.308;2023-04-23T10:07:01;101133.16;;;11.30;100.00
69058;BME280;56128;37.534;-122.308;2023-04-23T10:09:32;101132.63;;;11.25;100.00
69058;BME280;56128;37.534;-122.308;2023-04-23T10:12:00;101132.00;;;11.21;100.00
69058;BME280;56128;37.534;-122.308;2023-04-23T10:14:28;101125.38;;;11.14;100.00
69058;BME280;56128;37.534;-122.308;2023-04-23T10:17:02;101124.97;;;11.07;100.00
69058;BME280;56128;37.534;-122.308;2023-04-23T10:19:28;101124.53;;;11.00;100.00
69058;BME280;56128;37.534;-122.308;2023-04-23T10:21:56;101126.38;;;11.00;100.00
69058;BME280;56128;37.534;-122.308;2023-04-23T10:24:26;101130.97;;;10.98;100.00
69058;BME280;56128;37.534;-122.308;2023-04-23T10:27:03;101122.66;;;10.90;100.00
69058;BME280;56128;37.534;-122.308;2023-04-23T10:29:32;101121.19;;;10.85;100.00
69058;BME280;56128;37.534;-122.308;2023-04-23T10:32:00;101128.47;;;10.83;100.00
69058;BME280;56128;37.534;-122.308;2023-04-23T10:34:28;101114.56;;;10.78;100.00
69058;BME280;56128;37.534;-122.308;2023-04-23T10:36:56;101113.78;;;10.76;100.00
69058;BME280;56128;37.534;-122.308;2023-04-23T10:39:33;101122.34;;;10.81;100.00
69058;BME280;56128;37.534;-122.308;2023-04-23T10:42:01;101123.94;;;10.84;100.00
69058;BME280;56128;37.534;-122.308;2023-04-23T10:44:35;101129.41;;;10.82;100.00
69058;BME280;56128;37.534;-122.308;2023-04-23T10:47:02;101126.09;;;10.79;100.00
69058;BME280;56128;37.534;-122.308;2023-04-23T10:49:30;101122.59;;;10.78;100.00
69058;BME280;56128;37.534;-122.308;2023-04-23T10:52:08;101122.78;;;10.75;100.00
69058;BME280;56128;37.534;-122.308;2023-04-23T10:54:35;101117.53;;;10.74;100.00
69058;BME280;56128;37.534;-122.308;2023-04-23T10:57:03;101129.97;;;10.75;100.00
69058;BME280;56128;37.534;-122.308;2023-04-23T10:59:31;101129.22;;;10.72;100.00
69058;BME280;56128;37.534;-122.308;2023-04-23T11:02:05;101114.47;;;10.67;100.00
69058;BME280;56128;37.534;-122.308;2023-04-23T11:04:35;101132.31;;;10.66;100.00
69058;BME280;56128;37.534;-122.308;2023-04-23T11:07:09;101137.69;;;10.66;100.00
69058;BME280;56128;37.534;-122.308;2023-04-23T11:09:44;101127.72;;;10.68;100.00
69058;BME280;56128;37.534;-122.308;2023-04-23T11:14:51;101136.41;;;10.59;100.00
69058;BME280;56128;37.534;-122.308;2023-04-23T11:20:11;101154.91;;;10.62;100.00
69058;BME280;56128;37.534;-122.308;2023-04-23T11:22:39;101156.94;;;10.59;100.00
69058;BME280;56128;37.534;-122.308;2023-04-23T11:27:46;101166.38;;;10.51;100.00
69058;BME280;56128;37.534;-122.308;2023-04-23T11:30:26;101169.16;;;10.50;100.00
69058;BME280;56128;37.534;-122.308;2023-04-23T11:32:55;101164.22;;;10.44;100.00
69058;BME280;56128;37.534;-122.308;2023-04-23T11:35:23;101169.91;;;10.39;100.00
69058;BME280;56128;37.534;-122.308;2023-04-23T11:37:54;101164.19;;;10.31;100.00
69058;BME280;56128;37.534;-122.308;2023-04-23T11:40:21;101166.34;;;10.26;100.00
69058;BME280;56128;37.534;-122.308;2023-04-23T11:42:52;101167.50;;;10.21;100.00
69058;BME280;56128;37.534;-122.308;2023-04-23T11:45:26;101174.00;;;10.17;100.00
69058;BME280;56128;37.534;-122.308;2023-04-23T11:47:55;101177.97;;;10.12;100.00
69058;BME280;56128;37.534;-122.308;2023-04-23T11:50:25;101179.22;;;10.06;100.00
69058;BME280;56128;37.534;-122.308;2023-04-23T11:52:51;101187.47;;;10.03;100.00
69058;BME280;56128;37.534;-122.308;2023-04-23T11:55:19;101188.63;;;9.99;100.00
69058;BME280;56128;37.534;-122.308;2023-04-23T11:57:47;101189.59;;;9.98;100.00
69058;BME280;56128;37.534;-122.308;2023-04-23T12:00:21;101188.06;;;9.94;100.00
69058;BME280;56128;37.534;-122.308;2023-04-23T12:03:01;101187.22;;;9.93;100.00
69058;BME280;56128;37.534;-122.308;2023-04-23T12:05:33;101197.81;;;9.95;100.00
69058;BME280;56128;37.534;-122.308;2023-04-23T12:08:16;101191.81;;;9.91;100.00
69058;BME280;56128;37.534;-122.308;2023-04-23T12:13:21;101184.19;;;9.85;100.00
69058;BME280;56128;37.534;-122.308;2023-04-23T12:15:49;101188.03;;;9.81;100.00
69058;BME280;56128;37.534;-122.308;2023-04-23T12:18:16;101184.81;;;9.75;100.00
69058;BME280;56128;37.534;-122.308;2023-04-23T12:20:43;101183.38;;;9.70;100.00
69058;BME280;56128;37.534;-122.308;2023-04-23T12:23:10;101173.56;;;9.70;100.00
69058;BME280;56128;37.534;-122.308;2023-04-23T12:25:39;101182.75;;;9.66;100.00
69058;BME280;56128;37.534;-122.308;2023-04-23T12:28:06;101181.03;;;9.65;100.00